sensor_id;sensor_type;location;lat;lon;timestamp;temperature;humidity
612;DHT22;293;53.888;11.464;2022-10-16T00:01:07;15.30;99.90
612;DHT22;293;53.888;11.464;2022-10-16T00:03:35;15.30;99.90
612;DHT22;293;53.888;11.464;2022-10-16T00:06:02;15.40;99.90
612;DHT22;293;53.888;11.464;2022-10-16T00:08:30;15.40;99.90
612;DHT22;293;53.888;11.464;2022-10-16T00:11:01;15.40;99.90
612;DHT22;293;53.888;11.464;2022-10-16T00:13:29;15.40;99.90
612;DHT22;293;53.888;11.464;2022-10-16T00:15:57;15.40;99.90
612;DHT22;293;53.888;11.464;2022-10-16T00:18:24;15.40;99.90
612;DHT22;293;53.888;11.464;2022-10-16T00:20:51;15.30;99.90
612;DHT22;293;53.888;11.464;2022-10-16T00:23:18;15.40;99.90
612;DHT22;293;53.888;11.464;2022-10-16T00:25:54;15.40;99.90
612;DHT22;293;53.888;11.464;2022-10-16T00:28:21;15.50;99.90
612;DHT22;293;53.888;11.464;2022-10-16T00:30:49;15.50;99.90
612;DHT22;293;53.888;11.464;2022-10-16T00:33:16;15.40;99.90
612;DHT22;293;53.888;11.464;2022-10-16T00:35:43;15.40;99.90
612;DHT22;293;53.888;11.464;2022-10-16T00:38:10;15.40;99.90
612;DHT22;293;53.888;11.464;2022-10-16T00:40:37;15.40;99.90
612;DHT22;293;53.888;11.464;2022-10-16T00:43:12;15.30;99.90
612;DHT22;293;53.888;11.464;2022-10-16T00:45:39;15.30;99.90
612;DHT22;293;53.888;11.464;2022-10-16T00:48:11;15.20;99.90
612;DHT22;293;53.888;11.464;2022-10-16T00:50:39;15.20;99.90
612;DHT22;293;53.888;11.464;2022-10-16T00:53:09;15.20;99.90
612;DHT22;293;53.888;11.464;2022-10-16T00:55:37;15.20;99.90
612;DHT22;293;53.888;11.464;2022-10-16T00:58:04;15.10;99.90
612;DHT22;293;53.888;11.464;2022-10-16T01:00:31;15.00;99.90
612;DHT22;293;53.888;11.464;2022-10-16T01:03:00;15.00;99.90
612;DHT22;293;53.888;11.464;2022-10-16T01:05:33;15.00;99.90
612;DHT22;293;53.888;11.464;2022-10-16T01:08:07;15.00;99.90
612;DHT22;293;53.888;11.464;2022-10-16T01:10:38;14.90;99.90
612;DHT22;293;53.888;11.464;2022-10-16T01:13:07;14.90;99.90
612;DHT22;293;53.888;11.464;2022-10-16T01:15:37;14.90;99.90
612;DHT22;293;53.888;11.464;2022-10-16T01:18:11;14.90;99.90
612;DHT22;293;53.888;11.464;2022-10-16T01:20:45;14.90;99.90
612;DHT22;293;53.888;11.464;2022-10-16T01:23:27;14.90;99.90
612;DHT22;293;53.888;11.464;2022-10-16T01:26:18;14.90;99.90
612;DHT22;293;53.888;11.464;2022-10-16T01:28:51;14.90;99.90
612;DHT22;293;53.888;11.464;2022-10-16T01:31:23;14.80;99.90
612;DHT22;293;53.888;11.464;2022-10-16T01:33:57;14.70;99.90
612;DHT22;293;53.888;11.464;2022-10-16T01:36:29;14.70;99.90
612;DHT22;293;53.888;11.464;2022-10-16T01:39:01;14.70;99.90
612;DHT22;293;53.888;11.464;2022-10-16T01:41:31;14.70;99.90
612;DHT22;293;53.888;11.464;2022-10-16T01:44:02;14.70;99.90
612;DHT22;293;53.888;11.464;2022-10-16T01:46:31;14.60;99.90
612;DHT22;293;53.888;11.464;2022-10-16T01:49:00;14.60;99.90
612;DHT22;293;53.888;11.464;2022-10-16T01:51:29;14.70;99.90
612;DHT22;293;53.888;11.464;2022-10-16T01:53:59;14.60;99.90
612;DHT22;293;53.888;11.464;2022-10-16T01:56:27;14.60;99.90
612;DHT22;293;53.888;11.464;2022-10-16T01:58:57;14.60;99.90
612;DHT22;293;53.888;11.464;2022-10-16T02:01:31;14.60;99.90
612;DHT22;293;53.888;11.464;2022-10-16T02:04:03;14.60;99.90
612;DHT22;293;53.888;11.464;2022-10-16T02:06:31;14.60;99.90
612;DHT22;293;53.888;11.464;2022-10-16T02:08:59;14.50;99.90
612;DHT22;293;53.888;11.464;2022-10-16T02:11:26;14.50;99.90
612;DHT22;293;53.888;11.464;2022-10-16T02:13:55;14.50;99.90
612;DHT22;293;53.888;11.464;2022-10-16T02:16:32;14.50;99.90
612;DHT22;293;53.888;11.464;2022-10-16T02:18:58;14.50;99.90
612;DHT22;293;53.888;11.464;2022-10-16T02:21:27;14.50;99.90
612;DHT22;293;53.888;11.464;2022-10-16T02:24:00;14.40;99.90
612;DHT22;293;53.888;11.464;2022-10-16T02:26:31;14.30;99.90
612;DHT22;293;53.888;11.464;2022-10-16T02:29:06;14.30;99.90
612;DHT22;293;53.888;11.464;2022-10-16T02:31:40;14.30;99.90
612;DHT22;293;53.888;11.464;2022-10-16T02:34:08;14.30;99.90
612;DHT22;293;53.888;11.464;2022-10-16T02:36:38;14.20;99.90
612;DHT22;293;53.888;11.464;2022-10-16T02:39:05;14.20;99.90
612;DHT22;293;53.888;11.464;2022-10-16T02:41:33;14.20;99.90
612;DHT22;293;53.888;11.464;2022-10-16T02:43:59;14.20;99.90
612;DHT22;293;53.888;11.464;2022-10-16T02:46:26;14.20;99.90
612;DHT22;293;53.888;11.464;2022-10-16T02:48:54;14.20;99.90
612;DHT22;293;53.888;11.464;2022-10-16T02:51:21;14.10;99.90
612;DHT22;293;53.888;11.464;2022-10-16T02:53:48;14.10;99.90
612;DHT22;293;53.888;11.464;2022-10-16T02:56:15;14.10;99.90
612;DHT22;293;53.888;11.464;2022-10-16T02:58:41;14.00;99.90
612;DHT22;293;53.888;11.464;2022-10-16T03:01:08;14.00;99.90
612;DHT22;293;53.888;11.464;2022-10-16T03:03:35;14.00;99.90
612;DHT22;293;53.888;11.464;2022-10-16T03:06:03;13.90;99.90
612;DHT22;293;53.888;11.464;2022-10-16T03:08:31;14.00;99.90
612;DHT22;293;53.888;11.464;2022-10-16T03:10:58;14.00;99.90
612;DHT22;293;53.888;11.464;2022-10-16T03:13:24;14.00;99.90
612;DHT22;293;53.888;11.464;2022-10-16T03:15:51;14.00;99.90
612;DHT22;293;53.888;11.464;2022-10-16T03:18:18;14.00;99.90
612;DHT22;293;53.888;11.464;2022-10-16T03:20:45;14.00;99.90
612;DHT22;293;53.888;11.464;2022-10-16T03:23:13;14.00;99.90
612;DHT22;293;53.888;11.464;2022-10-16T03:25:40;14.00;99.90
612;DHT22;293;53.888;11.464;2022-10-16T03:28:06;14.00;99.90
612;DHT22;293;53.888;11.464;2022-10-16T03:30:33;14.00;99.90
612;DHT22;293;53.888;11.464;2022-10-16T03:33:00;14.00;99.90
612;DHT22;293;53.888;11.464;2022-10-16T03:35:27;14.00;99.90
612;DHT22;293;53.888;11.464;2022-10-16T03:37:54;14.00;99.90
612;DHT22;293;53.888;11.464;2022-10-16T03:40:22;14.00;99.90
612;DHT22;293;53.888;11.464;2022-10-16T03:42:49;14.00;99.90
612;DHT22;293;53.888;11.464;2022-10-16T03:45:15;14.00;99.90
612;DHT22;293;53.888;11.464;2022-10-16T03:47:42;13.90;99.90
612;DHT22;293;53.888;11.464;2022-10-16T03:50:09;13.90;99.90
612;DHT22;293;53.888;11.464;2022-10-16T03:52:36;13.80;99.90
612;DHT22;293;53.888;11.464;2022-10-16T03:55:03;13.80;99.90
612;DHT22;293;53.888;11.464;2022-10-16T03:57:31;13.80;99.90
612;DHT22;293;53.888;11.464;2022-10-16T03:59:58;13.70;99.90
612;DHT22;293;53.888;11.464;2022-10-16T04:02:25;13.70;99.90
612;DHT22;293;53.888;11.464;2022-10-16T04:04:52;13.70;99.90
612;DHT22;293;53.888;11.464;2022-10-16T04:07:18;13.70;99.90
612;DHT22;293;53.888;11.464;2022-10-16T04:09:45;13.60;99.90
612;DHT22;293;53.888;11.464;2022-10-16T04:12:12;13.60;99.90
612;DHT22;293;53.888;11.464;2022-10-16T04:14:41;13.50;99.90
612;DHT22;293;53.888;11.464;2022-10-16T04:17:07;13.40;99.90
612;DHT22;293;53.888;11.464;2022-10-16T04:19:34;13.40;99.90
612;DHT22;293;53.888;11.464;2022-10-16T04:22:01;13.40;99.90
612;DHT22;293;53.888;11.464;2022-10-16T04:24:28;13.30;99.90
612;DHT22;293;53.888;11.464;2022-10-16T04:26:54;13.30;99.90
612;DHT22;293;53.888;11.464;2022-10-16T04:29:21;13.20;99.90
612;DHT22;293;53.888;11.464;2022-10-16T04:31:49;13.20;99.90
612;DHT22;293;53.888;11.464;2022-10-16T04:34:16;13.20;99.90
612;DHT22;293;53.888;11.464;2022-10-16T04:36:43;13.20;99.90
612;DHT22;293;53.888;11.464;2022-10-16T04:39:10;13.20;99.90
612;DHT22;293;53.888;11.464;2022-10-16T04:41:36;13.20;99.90
612;DHT22;293;53.888;11.464;2022-10-16T04:44:03;13.20;99.90
612;DHT22;293;53.888;11.464;2022-10-16T04:46:30;13.20;99.90
612;DHT22;293;53.888;11.464;2022-10-16T04:48:58;13.20;99.90
612;DHT22;293;53.888;11.464;2022-10-16T04:51:25;13.20;99.90
612;DHT22;293;53.888;11.464;2022-10-16T04:53:53;13.20;99.90
612;DHT22;293;53.888;11.464;2022-10-16T04:56:20;13.20;99.90
612;DHT22;293;53.888;11.464;2022-10-16T04:58:47;13.10;99.90
612;DHT22;293;53.888;11.464;2022-10-16T05:01:14;13.10;99.90
612;DHT22;293;53.888;11.464;2022-10-16T05:03:40;13.10;99.90
612;DHT22;293;53.888;11.464;2022-10-16T05:06:09;13.20;99.90
612;DHT22;293;53.888;11.464;2022-10-16T05:08:35;13.10;99.90
612;DHT22;293;53.888;11.464;2022-10-16T05:11:02;13.10;99.90
612;DHT22;293;53.888;11.464;2022-10-16T05:13:29;13.00;99.90
612;DHT22;293;53.888;11.464;2022-10-16T05:15:56;13.00;99.90
612;DHT22;293;53.888;11.464;2022-10-16T05:18:23;13.00;99.90
612;DHT22;293;53.888;11.464;2022-10-16T05:20:50;13.00;99.90
612;DHT22;293;53.888;11.464;2022-10-16T05:23:18;13.00;99.90
612;DHT22;293;53.888;11.464;2022-10-16T05:25:52;13.00;99.90
612;DHT22;293;53.888;11.464;2022-10-16T05:28:20;13.00;99.90
612;DHT22;293;53.888;11.464;2022-10-16T05:30:46;13.00;99.90
612;DHT22;293;53.888;11.464;2022-10-16T05:33:13;13.00;99.90
612;DHT22;293;53.888;11.464;2022-10-16T05:35:40;13.00;99.90
612;DHT22;293;53.888;11.464;2022-10-16T05:38:07;13.00;99.90
612;DHT22;293;53.888;11.464;2022-10-16T05:40:35;13.00;99.90
612;DHT22;293;53.888;11.464;2022-10-16T05:43:02;12.90;99.90
612;DHT22;293;53.888;11.464;2022-10-16T05:45:28;13.00;99.90
612;DHT22;293;53.888;11.464;2022-10-16T05:47:55;13.00;99.90
612;DHT22;293;53.888;11.464;2022-10-16T05:50:22;13.00;99.90
612;DHT22;293;53.888;11.464;2022-10-16T05:52:49;13.00;99.90
612;DHT22;293;53.888;11.464;2022-10-16T05:55:16;13.00;99.90
612;DHT22;293;53.888;11.464;2022-10-16T05:57:44;13.00;99.90
612;DHT22;293;53.888;11.464;2022-10-16T06:00:11;13.00;99.90
612;DHT22;293;53.888;11.464;2022-10-16T06:02:38;12.90;99.90
612;DHT22;293;53.888;11.464;2022-10-16T06:05:05;13.00;99.90
612;DHT22;293;53.888;11.464;2022-10-16T06:07:34;13.00;99.90
612;DHT22;293;53.888;11.464;2022-10-16T06:10:01;13.10;99.90
612;DHT22;293;53.888;11.464;2022-10-16T06:12:28;13.20;99.90
612;DHT22;293;53.888;11.464;2022-10-16T06:14:56;13.20;99.90
612;DHT22;293;53.888;11.464;2022-10-16T06:17:23;13.30;99.90
612;DHT22;293;53.888;11.464;2022-10-16T06:19:50;13.30;99.90
612;DHT22;293;53.888;11.464;2022-10-16T06:22:17;13.40;99.90
612;DHT22;293;53.888;11.464;2022-10-16T06:24:43;13.40;99.90
612;DHT22;293;53.888;11.464;2022-10-16T06:27:10;13.40;99.90
612;DHT22;293;53.888;11.464;2022-10-16T06:29:37;13.40;99.90
612;DHT22;293;53.888;11.464;2022-10-16T06:32:05;13.30;99.90
612;DHT22;293;53.888;11.464;2022-10-16T06:34:32;13.30;99.90
612;DHT22;293;53.888;11.464;2022-10-16T06:36:59;13.40;99.90
612;DHT22;293;53.888;11.464;2022-10-16T06:39:26;13.50;99.90
612;DHT22;293;53.888;11.464;2022-10-16T06:41:52;13.50;99.90
612;DHT22;293;53.888;11.464;2022-10-16T06:44:19;13.60;99.90
612;DHT22;293;53.888;11.464;2022-10-16T06:46:46;13.70;99.90
612;DHT22;293;53.888;11.464;2022-10-16T06:49:14;13.80;99.90
612;DHT22;293;53.888;11.464;2022-10-16T06:51:48;13.80;99.90
612;DHT22;293;53.888;11.464;2022-10-16T06:54:15;13.90;99.90
612;DHT22;293;53.888;11.464;2022-10-16T06:56:42;13.90;99.90
612;DHT22;293;53.888;11.464;2022-10-16T06:59:08;14.00;99.90
612;DHT22;293;53.888;11.464;2022-10-16T07:01:35;14.10;99.90
612;DHT22;293;53.888;11.464;2022-10-16T07:04:02;14.10;99.90
612;DHT22;293;53.888;11.464;2022-10-16T07:06:33;14.20;99.90
612;DHT22;293;53.888;11.464;2022-10-16T07:09:02;14.20;99.90
612;DHT22;293;53.888;11.464;2022-10-16T07:11:29;14.30;99.90
612;DHT22;293;53.888;11.464;2022-10-16T07:13:56;14.40;99.90
612;DHT22;293;53.888;11.464;2022-10-16T07:16:25;14.50;99.90
612;DHT22;293;53.888;11.464;2022-10-16T07:18:53;14.60;99.90
612;DHT22;293;53.888;11.464;2022-10-16T07:21:23;14.70;99.90
612;DHT22;293;53.888;11.464;2022-10-16T07:23:53;14.90;99.90
612;DHT22;293;53.888;11.464;2022-10-16T07:26:20;15.00;99.90
612;DHT22;293;53.888;11.464;2022-10-16T07:28:47;14.90;99.90
612;DHT22;293;53.888;11.464;2022-10-16T07:31:14;14.90;99.90
612;DHT22;293;53.888;11.464;2022-10-16T07:33:43;15.00;99.90
612;DHT22;293;53.888;11.464;2022-10-16T07:36:11;15.00;99.90
612;DHT22;293;53.888;11.464;2022-10-16T07:38:38;15.00;99.90
612;DHT22;293;53.888;11.464;2022-10-16T07:41:07;15.00;99.90
612;DHT22;293;53.888;11.464;2022-10-16T07:43:34;15.00;99.90
612;DHT22;293;53.888;11.464;2022-10-16T07:46:01;15.10;99.90
612;DHT22;293;53.888;11.464;2022-10-16T07:48:29;15.10;99.90
612;DHT22;293;53.888;11.464;2022-10-16T07:50:57;15.10;99.90
612;DHT22;293;53.888;11.464;2022-10-16T07:53:25;15.10;99.90
612;DHT22;293;53.888;11.464;2022-10-16T07:55:52;15.20;99.90
612;DHT22;293;53.888;11.464;2022-10-16T07:58:20;15.10;99.90
612;DHT22;293;53.888;11.464;2022-10-16T08:00:47;15.10;99.90
612;DHT22;293;53.888;11.464;2022-10-16T08:03:13;15.10;99.90
612;DHT22;293;53.888;11.464;2022-10-16T08:05:40;15.20;99.90
612;DHT22;293;53.888;11.464;2022-10-16T08:08:11;15.20;99.90
612;DHT22;293;53.888;11.464;2022-10-16T08:10:39;15.20;99.90
612;DHT22;293;53.888;11.464;2022-10-16T08:13:06;15.20;99.90
612;DHT22;293;53.888;11.464;2022-10-16T08:15:34;15.10;99.90
612;DHT22;293;53.888;11.464;2022-10-16T08:18:02;15.10;99.90
612;DHT22;293;53.888;11.464;2022-10-16T08:20:30;15.20;99.90
612;DHT22;293;53.888;11.464;2022-10-16T08:22:58;15.20;99.90
612;DHT22;293;53.888;11.464;2022-10-16T08:25:26;15.20;99.90
612;DHT22;293;53.888;11.464;2022-10-16T08:27:53;15.30;99.90
612;DHT22;293;53.888;11.464;2022-10-16T08:30:21;15.30;99.90
612;DHT22;293;53.888;11.464;2022-10-16T08:32:50;15.40;99.90
612;DHT22;293;53.888;11.464;2022-10-16T08:35:17;15.40;99.90
612;DHT22;293;53.888;11.464;2022-10-16T08:37:43;15.60;99.90
612;DHT22;293;53.888;11.464;2022-10-16T08:40:17;15.60;99.90
612;DHT22;293;53.888;11.464;2022-10-16T08:43:09;15.70;99.90
612;DHT22;293;53.888;11.464;2022-10-16T08:45:46;15.80;99.90
612;DHT22;293;53.888;11.464;2022-10-16T08:48:22;15.80;99.90
612;DHT22;293;53.888;11.464;2022-10-16T08:50:52;15.90;99.90
612;DHT22;293;53.888;11.464;2022-10-16T08:53:23;15.90;99.90
612;DHT22;293;53.888;11.464;2022-10-16T08:55:52;15.90;99.90
612;DHT22;293;53.888;11.464;2022-10-16T08:58:20;15.80;99.90
612;DHT22;293;53.888;11.464;2022-10-16T09:00:51;15.90;99.90
612;DHT22;293;53.888;11.464;2022-10-16T09:03:33;15.80;99.90
612;DHT22;293;53.888;11.464;2022-10-16T09:06:28;15.90;99.90
612;DHT22;293;53.888;11.464;2022-10-16T09:09:06;16.00;99.90
612;DHT22;293;53.888;11.464;2022-10-16T09:11:44;16.00;99.90
612;DHT22;293;53.888;11.464;2022-10-16T09:14:23;16.10;99.90
612;DHT22;293;53.888;11.464;2022-10-16T09:17:12;16.10;99.90
612;DHT22;293;53.888;11.464;2022-10-16T09:19:48;16.10;99.90
612;DHT22;293;53.888;11.464;2022-10-16T09:22:18;16.00;99.90
612;DHT22;293;53.888;11.464;2022-10-16T09:24:47;16.10;99.90
612;DHT22;293;53.888;11.464;2022-10-16T09:27:14;16.10;99.90
612;DHT22;293;53.888;11.464;2022-10-16T09:29:41;16.10;99.90
612;DHT22;293;53.888;11.464;2022-10-16T09:32:12;16.10;99.90
612;DHT22;293;53.888;11.464;2022-10-16T09:34:45;16.10;99.90
612;DHT22;293;53.888;11.464;2022-10-16T09:37:17;16.10;99.90
612;DHT22;293;53.888;11.464;2022-10-16T09:39:45;16.20;99.90
612;DHT22;293;53.888;11.464;2022-10-16T09:42:15;16.20;99.90
612;DHT22;293;53.888;11.464;2022-10-16T09:44:47;16.20;99.90
612;DHT22;293;53.888;11.464;2022-10-16T09:47:17;16.20;99.90
612;DHT22;293;53.888;11.464;2022-10-16T09:49:54;16.30;99.90
612;DHT22;293;53.888;11.464;2022-10-16T09:52:23;16.40;99.90
612;DHT22;293;53.888;11.464;2022-10-16T09:54:52;16.40;99.90
612;DHT22;293;53.888;11.464;2022-10-16T09:57:19;16.50;99.90
612;DHT22;293;53.888;11.464;2022-10-16T09:59:47;16.50;99.90
612;DHT22;293;53.888;11.464;2022-10-16T10:02:16;16.50;99.90
612;DHT22;293;53.888;11.464;2022-10-16T10:04:49;16.60;99.90
612;DHT22;293;53.888;11.464;2022-10-16T10:07:23;16.60;99.90
612;DHT22;293;53.888;11.464;2022-10-16T10:09:51;16.60;99.90
612;DHT22;293;53.888;11.464;2022-10-16T10:12:20;16.70;99.90
612;DHT22;293;53.888;11.464;2022-10-16T10:14:48;16.80;99.90
612;DHT22;293;53.888;11.464;2022-10-16T10:17:18;16.80;99.90
612;DHT22;293;53.888;11.464;2022-10-16T10:19:51;16.80;99.90
612;DHT22;293;53.888;11.464;2022-10-16T10:22:27;16.90;99.90
612;DHT22;293;53.888;11.464;2022-10-16T10:28:14;17.00;99.90
612;DHT22;293;53.888;11.464;2022-10-16T10:30:48;17.00;99.90
612;DHT22;293;53.888;11.464;2022-10-16T10:33:24;17.10;99.90
612;DHT22;293;53.888;11.464;2022-10-16T10:35:58;17.10;99.90
612;DHT22;293;53.888;11.464;2022-10-16T10:38:34;17.20;99.90
612;DHT22;293;53.888;11.464;2022-10-16T10:41:19;17.20;99.90
612;DHT22;293;53.888;11.464;2022-10-16T10:43:57;17.20;99.90
612;DHT22;293;53.888;11.464;2022-10-16T10:46:32;17.20;99.90
612;DHT22;293;53.888;11.464;2022-10-16T10:49:09;17.30;99.90
612;DHT22;293;53.888;11.464;2022-10-16T10:51:48;17.40;99.90
612;DHT22;293;53.888;11.464;2022-10-16T10:54:26;17.50;99.90
612;DHT22;293;53.888;11.464;2022-10-16T10:56:58;17.50;99.90
612;DHT22;293;53.888;11.464;2022-10-16T11:00:00;17.50;99.90
612;DHT22;293;53.888;11.464;2022-10-16T11:02:34;17.60;99.90
612;DHT22;293;53.888;11.464;2022-10-16T11:05:21;17.70;99.90
612;DHT22;293;53.888;11.464;2022-10-16T11:07:54;17.70;99.90
612;DHT22;293;53.888;11.464;2022-10-16T11:10:25;17.80;99.90
612;DHT22;293;53.888;11.464;2022-10-16T11:12:57;17.80;99.90
612;DHT22;293;53.888;11.464;2022-10-16T11:15:28;17.80;99.90
612;DHT22;293;53.888;11.464;2022-10-16T11:17:59;17.90;99.90
612;DHT22;293;53.888;11.464;2022-10-16T11:20:31;17.90;99.90
612;DHT22;293;53.888;11.464;2022-10-16T11:23:05;18.10;99.90
612;DHT22;293;53.888;11.464;2022-10-16T11:25:35;18.30;99.90
612;DHT22;293;53.888;11.464;2022-10-16T11:28:08;18.40;99.90
612;DHT22;293;53.888;11.464;2022-10-16T11:30:43;18.50;99.90
612;DHT22;293;53.888;11.464;2022-10-16T11:33:24;18.50;99.90
612;DHT22;293;53.888;11.464;2022-10-16T11:35:55;18.60;99.90
612;DHT22;293;53.888;11.464;2022-10-16T11:38:30;18.60;99.90
612;DHT22;293;53.888;11.464;2022-10-16T11:41:04;18.50;99.90
612;DHT22;293;53.888;11.464;2022-10-16T11:43:39;18.40;99.60
612;DHT22;293;53.888;11.464;2022-10-16T11:46:12;18.40;99.70
612;DHT22;293;53.888;11.464;2022-10-16T11:48:43;18.40;99.20
612;DHT22;293;53.888;11.464;2022-10-16T11:51:18;18.40;99.00
612;DHT22;293;53.888;11.464;2022-10-16T11:53:53;18.30;99.40
612;DHT22;293;53.888;11.464;2022-10-16T11:56:23;18.40;99.30
612;DHT22;293;53.888;11.464;2022-10-16T11:58:56;18.40;99.10
612;DHT22;293;53.888;11.464;2022-10-16T12:01:30;18.50;98.80
612;DHT22;293;53.888;11.464;2022-10-16T12:04:17;18.50;98.70
612;DHT22;293;53.888;11.464;2022-10-16T12:06:49;18.50;98.80
612;DHT22;293;53.888;11.464;2022-10-16T12:09:23;18.50;98.70
612;DHT22;293;53.888;11.464;2022-10-16T12:11:53;18.50;98.40
612;DHT22;293;53.888;11.464;2022-10-16T12:14:35;18.50;98.20
612;DHT22;293;53.888;11.464;2022-10-16T12:17:04;18.60;98.20
612;DHT22;293;53.888;11.464;2022-10-16T12:19:57;18.60;97.70
612;DHT22;293;53.888;11.464;2022-10-16T12:22:27;18.70;97.70
612;DHT22;293;53.888;11.464;2022-10-16T12:24:54;18.80;97.60
612;DHT22;293;53.888;11.464;2022-10-16T12:27:27;18.90;97.40
612;DHT22;293;53.888;11.464;2022-10-16T12:29:55;19.10;97.40
612;DHT22;293;53.888;11.464;2022-10-16T12:32:28;19.20;97.00
612;DHT22;293;53.888;11.464;2022-10-16T12:34:56;19.30;96.20
612;DHT22;293;53.888;11.464;2022-10-16T12:37:25;19.50;96.10
612;DHT22;293;53.888;11.464;2022-10-16T12:39:53;19.40;95.70
612;DHT22;293;53.888;11.464;2022-10-16T12:42:33;19.60;95.70
612;DHT22;293;53.888;11.464;2022-10-16T12:45:00;19.80;95.50
612;DHT22;293;53.888;11.464;2022-10-16T12:47:47;19.80;95.10
612;DHT22;293;53.888;11.464;2022-10-16T12:50:27;19.90;94.80
612;DHT22;293;53.888;11.464;2022-10-16T12:52:56;19.70;94.00
612;DHT22;293;53.888;11.464;2022-10-16T12:55:23;19.70;94.40
612;DHT22;293;53.888;11.464;2022-10-16T12:58:09;19.60;93.90
612;DHT22;293;53.888;11.464;2022-10-16T13:00:43;19.40;94.40
612;DHT22;293;53.888;11.464;2022-10-16T13:03:33;19.40;94.80
612;DHT22;293;53.888;11.464;2022-10-16T13:06:15;19.40;94.80
612;DHT22;293;53.888;11.464;2022-10-16T13:08:55;19.40;94.60
612;DHT22;293;53.888;11.464;2022-10-16T13:11:41;19.50;94.80
612;DHT22;293;53.888;11.464;2022-10-16T13:17:23;19.30;94.70
612;DHT22;293;53.888;11.464;2022-10-16T13:20:01;19.20;94.80
612;DHT22;293;53.888;11.464;2022-10-16T13:22:38;19.10;95.00
612;DHT22;293;53.888;11.464;2022-10-16T13:25:19;19.00;94.90
612;DHT22;293;53.888;11.464;2022-10-16T13:27:53;18.90;95.00
612;DHT22;293;53.888;11.464;2022-10-16T13:30:24;18.80;95.20
612;DHT22;293;53.888;11.464;2022-10-16T13:32:59;18.80;95.20
612;DHT22;293;53.888;11.464;2022-10-16T13:35:28;18.80;95.40
612;DHT22;293;53.888;11.464;2022-10-16T13:38:12;18.90;95.60
612;DHT22;293;53.888;11.464;2022-10-16T13:40:53;19.00;95.00
612;DHT22;293;53.888;11.464;2022-10-16T13:43:22;19.10;95.30
612;DHT22;293;53.888;11.464;2022-10-16T13:45:56;19.10;94.20
612;DHT22;293;53.888;11.464;2022-10-16T13:48:23;19.00;93.80
612;DHT22;293;53.888;11.464;2022-10-16T13:51:12;18.80;94.00
612;DHT22;293;53.888;11.464;2022-10-16T13:53:40;18.70;94.70
612;DHT22;293;53.888;11.464;2022-10-16T13:56:11;18.60;94.70
612;DHT22;293;53.888;11.464;2022-10-16T13:58:38;18.40;95.00
612;DHT22;293;53.888;11.464;2022-10-16T14:01:16;18.40;95.40
612;DHT22;293;53.888;11.464;2022-10-16T14:03:44;18.40;95.40
612;DHT22;293;53.888;11.464;2022-10-16T14:06:13;18.30;95.70
612;DHT22;293;53.888;11.464;2022-10-16T14:08:44;18.20;95.90
612;DHT22;293;53.888;11.464;2022-10-16T14:11:11;18.30;95.90
612;DHT22;293;53.888;11.464;2022-10-16T14:13:43;18.30;95.90
612;DHT22;293;53.888;11.464;2022-10-16T14:16:18;18.20;95.90
612;DHT22;293;53.888;11.464;2022-10-16T14:18:52;18.10;95.50
612;DHT22;293;53.888;11.464;2022-10-16T14:21:21;18.00;95.30
612;DHT22;293;53.888;11.464;2022-10-16T14:23:48;18.00;95.30
612;DHT22;293;53.888;11.464;2022-10-16T14:26:17;17.90;94.90
612;DHT22;293;53.888;11.464;2022-10-16T14:28:45;17.90;94.90
612;DHT22;293;53.888;11.464;2022-10-16T14:31:25;17.90;94.80
612;DHT22;293;53.888;11.464;2022-10-16T14:33:53;18.00;94.90
612;DHT22;293;53.888;11.464;2022-10-16T14:36:21;18.00;94.90
612;DHT22;293;53.888;11.464;2022-10-16T14:38:56;18.00;95.00
612;DHT22;293;53.888;11.464;2022-10-16T14:41:24;18.00;95.00
612;DHT22;293;53.888;11.464;2022-10-16T14:43:53;17.90;94.80
612;DHT22;293;53.888;11.464;2022-10-16T14:46:29;17.80;95.10
612;DHT22;293;53.888;11.464;2022-10-16T14:49:00;17.90;95.30
612;DHT22;293;53.888;11.464;2022-10-16T14:51:29;17.90;95.60
612;DHT22;293;53.888;11.464;2022-10-16T14:53:56;17.80;95.70
612;DHT22;293;53.888;11.464;2022-10-16T14:56:25;17.80;95.90
612;DHT22;293;53.888;11.464;2022-10-16T14:58:55;17.70;95.90
612;DHT22;293;53.888;11.464;2022-10-16T15:01:24;17.60;95.90
612;DHT22;293;53.888;11.464;2022-10-16T15:03:51;17.60;95.90
612;DHT22;293;53.888;11.464;2022-10-16T15:06:20;17.60;95.90
612;DHT22;293;53.888;11.464;2022-10-16T15:08:47;17.60;95.90
612;DHT22;293;53.888;11.464;2022-10-16T15:11:16;17.60;95.90
612;DHT22;293;53.888;11.464;2022-10-16T15:13:43;17.50;95.80
612;DHT22;293;53.888;11.464;2022-10-16T15:16:11;17.50;96.10
612;DHT22;293;53.888;11.464;2022-10-16T15:18:40;17.50;95.60
612;DHT22;293;53.888;11.464;2022-10-16T15:21:07;17.40;95.60
612;DHT22;293;53.888;11.464;2022-10-16T15:23:34;17.40;95.60
612;DHT22;293;53.888;11.464;2022-10-16T15:26:01;17.40;95.60
612;DHT22;293;53.888;11.464;2022-10-16T15:28:28;17.30;95.80
612;DHT22;293;53.888;11.464;2022-10-16T15:30:56;17.20;95.70
612;DHT22;293;53.888;11.464;2022-10-16T15:33:24;17.20;96.00
612;DHT22;293;53.888;11.464;2022-10-16T15:35:54;17.10;95.90
612;DHT22;293;53.888;11.464;2022-10-16T15:38:22;17.00;95.90
612;DHT22;293;53.888;11.464;2022-10-16T15:40:50;17.00;96.10
612;DHT22;293;53.888;11.464;2022-10-16T15:43:17;17.00;96.10
612;DHT22;293;53.888;11.464;2022-10-16T15:45:44;17.00;96.10
612;DHT22;293;53.888;11.464;2022-10-16T15:48:12;16.90;96.20
612;DHT22;293;53.888;11.464;2022-10-16T15:50:40;17.00;96.30
612;DHT22;293;53.888;11.464;2022-10-16T15:53:09;16.90;96.30
612;DHT22;293;53.888;11.464;2022-10-16T15:55:35;16.90;96.40
612;DHT22;293;53.888;11.464;2022-10-16T15:58:03;16.80;96.60
612;DHT22;293;53.888;11.464;2022-10-16T16:00:31;16.80;96.60
612;DHT22;293;53.888;11.464;2022-10-16T16:02:58;16.70;96.60
612;DHT22;293;53.888;11.464;2022-10-16T16:05:25;16.60;96.80
612;DHT22;293;53.888;11.464;2022-10-16T16:07:53;16.50;96.90
612;DHT22;293;53.888;11.464;2022-10-16T16:10:21;16.50;97.10
612;DHT22;293;53.888;11.464;2022-10-16T16:12:48;16.40;97.30
612;DHT22;293;53.888;11.464;2022-10-16T16:15:18;16.40;97.30
612;DHT22;293;53.888;11.464;2022-10-16T16:17:45;16.30;97.60
612;DHT22;293;53.888;11.464;2022-10-16T16:20:12;16.20;97.70
612;DHT22;293;53.888;11.464;2022-10-16T16:22:39;16.10;97.90
612;DHT22;293;53.888;11.464;2022-10-16T16:25:06;16.10;98.00
612;DHT22;293;53.888;11.464;2022-10-16T16:27:35;16.00;98.10
612;DHT22;293;53.888;11.464;2022-10-16T16:30:05;15.90;98.30
612;DHT22;293;53.888;11.464;2022-10-16T16:32:33;15.80;98.40
612;DHT22;293;53.888;11.464;2022-10-16T16:35:00;15.70;98.70
612;DHT22;293;53.888;11.464;2022-10-16T16:37:27;15.70;98.90
612;DHT22;293;53.888;11.464;2022-10-16T16:39:54;15.60;99.00
612;DHT22;293;53.888;11.464;2022-10-16T16:42:24;15.50;99.00